CGMPW CYHZ-CYQM
Flight info
| Callsign | CGMPW |
|---|---|
| Flight time | 0h 26m |
| Altitude | 12000 |
| Route | IKDEM |
| Aircraft | PC24/L-SBDGIRWY/LB2 |
Departure
| Time | 2026-04-21 07:33 |
|---|---|
| Airport | Halifax / Stanfield International Airport (CYHZ) |
Arrival
| Time | 2026-04-21 07:59 |
|---|---|
| Airport | Greater Moncton Roméo LeBlanc International Airport (CYQM) |
| Time | Latitude | Longitude | Altitude | Speed | Heading |
|---|---|---|---|---|---|
| 2026-04-21 07:21 | 44.86683 | -63.53208 | 458 ft | 0 kts | 222° |
| 2026-04-21 07:29 | 44.86675 | -63.53212 | 458 ft | 4 kts | 173° |
| 2026-04-21 07:29 | 44.86688 | -63.53161 | 458 ft | 9 kts | 52° |
| 2026-04-21 07:29 | 44.86711 | -63.53120 | 458 ft | 0 kts | 34° |
| 2026-04-21 07:29 | 44.86714 | -63.53118 | 458 ft | 4 kts | 34° |
| 2026-04-21 07:30 | 44.86721 | -63.53028 | 458 ft | 16 kts | 120° |
| 2026-04-21 07:30 | 44.86663 | -63.52894 | 457 ft | 16 kts | 124° |
| 2026-04-21 07:30 | 44.86636 | -63.52839 | 457 ft | 0 kts | 124° |
| 2026-04-21 07:32 | 44.86629 | -63.52825 | 457 ft | 9 kts | 124° |
| 2026-04-21 07:32 | 44.86617 | -63.52679 | 455 ft | 20 kts | 36° |
| 2026-04-21 07:32 | 44.86929 | -63.52372 | 456 ft | 103 kts | 35° |
| 2026-04-21 07:32 | 44.87742 | -63.51579 | 569 ft | 170 kts | 35° |
| 2026-04-21 07:33 | 44.88723 | -63.50575 | 1706 ft | 173 kts | 36° |
| 2026-04-21 07:33 | 44.89721 | -63.49519 | 2824 ft | 194 kts | 36° |
| 2026-04-21 07:33 | 44.90917 | -63.48263 | 3480 ft | 237 kts | 33° |
| 2026-04-21 07:33 | 44.92606 | -63.47603 | 4136 ft | 275 kts | 357° |
| 2026-04-21 07:34 | 44.94495 | -63.48539 | 4797 ft | 306 kts | 325° |
| 2026-04-21 07:34 | 44.95759 | -63.50696 | 5405 ft | 267 kts | 292° |
| 2026-04-21 07:34 | 44.96023 | -63.53072 | 5996 ft | 226 kts | 271° |
| 2026-04-21 07:34 | 44.96038 | -63.55127 | 6561 ft | 193 kts | 272° |
| 2026-04-21 07:35 | 44.96167 | -63.56856 | 7099 ft | 161 kts | 284° |
| 2026-04-21 07:35 | 44.96494 | -63.58227 | 7546 ft | 143 kts | 290° |
| 2026-04-21 07:35 | 44.96886 | -63.59689 | 8140 ft | 176 kts | 291° |
| 2026-04-21 07:35 | 44.97375 | -63.61450 | 8870 ft | 209 kts | 291° |
| 2026-04-21 07:36 | 44.97944 | -63.63490 | 9586 ft | 242 kts | 291° |
| 2026-04-21 07:36 | 44.98601 | -63.65856 | 10291 ft | 273 kts | 291° |
| 2026-04-21 07:36 | 44.99328 | -63.68480 | 10969 ft | 300 kts | 291° |
| 2026-04-21 07:36 | 45.00120 | -63.71348 | 11635 ft | 324 kts | 291° |
| 2026-04-21 07:37 | 45.00968 | -63.74411 | 12031 ft | 338 kts | 291° |
| 2026-04-21 07:37 | 45.01777 | -63.77344 | 11986 ft | 302 kts | 291° |
| 2026-04-21 07:37 | 45.02500 | -63.79962 | 11983 ft | 271 kts | 291° |
| 2026-04-21 07:37 | 45.03149 | -63.82323 | 11988 ft | 245 kts | 291° |
| 2026-04-21 07:38 | 45.03735 | -63.84449 | 11984 ft | 225 kts | 291° |
| 2026-04-21 07:38 | 45.04284 | -63.86449 | 11985 ft | 216 kts | 291° |
| 2026-04-21 07:38 | 45.04860 | -63.88545 | 12012 ft | 242 kts | 291° |
| 2026-04-21 07:38 | 45.05507 | -63.90906 | 12022 ft | 273 kts | 291° |
| 2026-04-21 07:39 | 45.05982 | -63.92635 | 12024 ft | 295 kts | 291° |
| 2026-04-21 07:39 | 45.07024 | -63.96442 | 12017 ft | 322 kts | 291° |
| 2026-04-21 07:39 | 45.07843 | -63.99431 | 12013 ft | 328 kts | 291° |
| 2026-04-21 07:39 | 45.08666 | -64.02448 | 12010 ft | 329 kts | 291° |
| 2026-04-21 07:40 | 45.09215 | -64.04455 | 12012 ft | 330 kts | 291° |
| 2026-04-21 07:40 | 45.10042 | -64.07492 | 12010 ft | 331 kts | 291° |
| 2026-04-21 07:40 | 45.10870 | -64.10534 | 12011 ft | 331 kts | 291° |
| 2026-04-21 07:40 | 45.11700 | -64.13583 | 12011 ft | 332 kts | 291° |
| 2026-04-21 07:41 | 45.12540 | -64.16632 | 12008 ft | 330 kts | 293° |
| 2026-04-21 07:41 | 45.13904 | -64.19216 | 11997 ft | 330 kts | 318° |
| 2026-04-21 07:41 | 45.15826 | -64.20976 | 12001 ft | 330 kts | 332° |
| 2026-04-21 07:41 | 45.17886 | -64.22455 | 12009 ft | 332 kts | 333° |
| 2026-04-21 07:42 | 45.19958 | -64.23920 | 12010 ft | 332 kts | 333° |
| 2026-04-21 07:42 | 45.21992 | -64.25412 | 12011 ft | 332 kts | 332° |
| 2026-04-21 07:42 | 45.24045 | -64.26933 | 12011 ft | 332 kts | 332° |
| 2026-04-21 07:42 | 45.26103 | -64.28445 | 12011 ft | 332 kts | 332° |
| 2026-04-21 07:43 | 45.28167 | -64.29960 | 12011 ft | 332 kts | 332° |
| 2026-04-21 07:43 | 45.30228 | -64.31472 | 12011 ft | 332 kts | 332° |
| 2026-04-21 07:43 | 45.32254 | -64.32967 | 12011 ft | 332 kts | 332° |
| 2026-04-21 07:43 | 45.34312 | -64.34483 | 12011 ft | 332 kts | 332° |
| 2026-04-21 07:44 | 45.36373 | -64.36002 | 12011 ft | 332 kts | 332° |
| 2026-04-21 07:44 | 45.38425 | -64.37517 | 12010 ft | 332 kts | 332° |
| 2026-04-21 07:44 | 45.40481 | -64.39035 | 12010 ft | 332 kts | 332° |
| 2026-04-21 07:44 | 45.42512 | -64.40538 | 12010 ft | 332 kts | 332° |
| 2026-04-21 07:45 | 45.44561 | -64.42052 | 12010 ft | 332 kts | 332° |
| 2026-04-21 07:45 | 45.46614 | -64.43575 | 12010 ft | 332 kts | 332° |
| 2026-04-21 07:45 | 45.48666 | -64.45093 | 12010 ft | 332 kts | 332° |
| 2026-04-21 07:45 | 45.50713 | -64.46614 | 12010 ft | 332 kts | 332° |
| 2026-04-21 07:46 | 45.52762 | -64.48133 | 12010 ft | 332 kts | 332° |
| 2026-04-21 07:46 | 45.54807 | -64.49653 | 12010 ft | 332 kts | 332° |
| 2026-04-21 07:46 | 45.56853 | -64.51174 | 12010 ft | 332 kts | 332° |
| 2026-04-21 07:46 | 45.58898 | -64.52696 | 12009 ft | 332 kts | 332° |
| 2026-04-21 07:47 | 45.60944 | -64.54220 | 12009 ft | 332 kts | 332° |
| 2026-04-21 07:47 | 45.62989 | -64.55743 | 12010 ft | 332 kts | 332° |
| 2026-04-21 07:47 | 45.65016 | -64.57257 | 11722 ft | 332 kts | 332° |
| 2026-04-21 07:47 | 45.67053 | -64.58775 | 11369 ft | 328 kts | 332° |
| 2026-04-21 07:48 | 45.69065 | -64.60281 | 10987 ft | 319 kts | 332° |
| 2026-04-21 07:48 | 45.70987 | -64.61716 | 10354 ft | 304 kts | 332° |
| 2026-04-21 07:48 | 45.72821 | -64.63091 | 9717 ft | 292 kts | 332° |
| 2026-04-21 07:48 | 45.74593 | -64.64416 | 9082 ft | 282 kts | 332° |
| 2026-04-21 07:49 | 45.76305 | -64.65701 | 8425 ft | 267 kts | 332° |
| 2026-04-21 07:49 | 45.77823 | -64.66835 | 8075 ft | 235 kts | 332° |
| 2026-04-21 07:49 | 45.79261 | -64.67917 | 7798 ft | 234 kts | 332° |
| 2026-04-21 07:49 | 45.80696 | -64.68995 | 7511 ft | 232 kts | 332° |
| 2026-04-21 07:50 | 45.82129 | -64.70073 | 7212 ft | 232 kts | 332° |
| 2026-04-21 07:50 | 45.83565 | -64.71151 | 6913 ft | 232 kts | 332° |
| 2026-04-21 07:50 | 45.84997 | -64.72229 | 6598 ft | 232 kts | 332° |
| 2026-04-21 07:50 | 45.86405 | -64.73289 | 6292 ft | 230 kts | 332° |
| 2026-04-21 07:51 | 45.87822 | -64.74355 | 5985 ft | 228 kts | 332° |
| 2026-04-21 07:51 | 45.89232 | -64.75419 | 5670 ft | 227 kts | 332° |
| 2026-04-21 07:51 | 45.90626 | -64.76468 | 5388 ft | 219 kts | 332° |
| 2026-04-21 07:51 | 45.91872 | -64.77438 | 5088 ft | 190 kts | 326° |
| 2026-04-21 07:52 | 45.92762 | -64.78658 | 4852 ft | 165 kts | 310° |
| 2026-04-21 07:52 | 45.93499 | -64.79812 | 4633 ft | 149 kts | 313° |
| 2026-04-21 07:52 | 45.94181 | -64.80874 | 4449 ft | 143 kts | 312° |
| 2026-04-21 07:52 | 45.94851 | -64.81921 | 4269 ft | 142 kts | 311° |
| 2026-04-21 07:53 | 45.95519 | -64.82973 | 4087 ft | 143 kts | 312° |
| 2026-04-21 07:53 | 45.96176 | -64.84005 | 4006 ft | 138 kts | 311° |
| 2026-04-21 07:53 | 45.96867 | -64.84979 | 3983 ft | 141 kts | 329° |
| 2026-04-21 07:53 | 45.97825 | -64.85315 | 4120 ft | 136 kts | 0° |
| 2026-04-21 07:54 | 45.98720 | -64.84956 | 4131 ft | 134 kts | 32° |
| 2026-04-21 07:54 | 45.99416 | -64.84093 | 4118 ft | 131 kts | 41° |
| 2026-04-21 07:54 | 46.00070 | -64.83261 | 4044 ft | 131 kts | 41° |
| 2026-04-21 07:54 | 46.00765 | -64.82350 | 3978 ft | 130 kts | 41° |
| 2026-04-21 07:55 | 46.01436 | -64.81459 | 4009 ft | 130 kts | 41° |
| 2026-04-21 07:55 | 46.02099 | -64.80596 | 3993 ft | 134 kts | 42° |
| 2026-04-21 07:55 | 46.02771 | -64.79718 | 3991 ft | 131 kts | 41° |
| 2026-04-21 07:55 | 46.03504 | -64.78888 | 3498 ft | 132 kts | 36° |
| 2026-04-21 07:56 | 46.04209 | -64.78112 | 3083 ft | 127 kts | 41° |
| 2026-04-21 07:56 | 46.04863 | -64.77231 | 2795 ft | 128 kts | 43° |
| 2026-04-21 07:56 | 46.05463 | -64.76307 | 2470 ft | 128 kts | 47° |
| 2026-04-21 07:56 | 46.06091 | -64.75403 | 1964 ft | 128 kts | 44° |
| 2026-04-21 07:57 | 46.06742 | -64.74512 | 1601 ft | 131 kts | 41° |
| 2026-04-21 07:57 | 46.07404 | -64.73657 | 1300 ft | 122 kts | 42° |
| 2026-04-21 07:57 | 46.08007 | -64.72863 | 963 ft | 123 kts | 41° |
| 2026-04-21 07:57 | 46.08685 | -64.72000 | 855 ft | 125 kts | 42° |
| 2026-04-21 07:58 | 46.09305 | -64.71155 | 617 ft | 122 kts | 44° |
| 2026-04-21 07:58 | 46.09912 | -64.70330 | 418 ft | 118 kts | 42° |
| 2026-04-21 07:58 | 46.10523 | -64.69526 | 263 ft | 121 kts | 41° |
| 2026-04-21 07:58 | 46.11096 | -64.68790 | 202 ft | 97 kts | 45° |
| 2026-04-21 07:59 | 46.11578 | -64.68427 | 196 ft | 61 kts | 347° |
| 2026-04-21 07:59 | 46.11700 | -64.68551 | 195 ft | 0 kts | 246° |